Time;durP1;ratioP1;P1;durP2;ratioP2;P2;SDS_P1;SDS_P2;PMS_P1;PMS_P2;Temp;Humidity;BMP_temperature;BMP_pressure;BME280_temperature;BME280_humidity;BME280_pressure;Samples;Min_cycle;Max_cycle;Signal;HPM_P1;HPM_P2
2022/07/17 00:00:16;;;;;;;;;;;20.50;69.20;;;;;;4955787;28;19934;-87
2022/07/17 00:02:47;;;;;;;;;;;20.50;70.00;;;;;;4963991;28;19927;-86
2022/07/17 00:05:15;;;;;;;;;;;20.50;70.20;;;;;;4948129;29;19930;-87
2022/07/17 00:07:48;;;;;;;;;;;20.50;70.30;;;;;;4962150;28;19927;-88
2022/07/17 00:10:16;;;;;;;;;;;20.40;70.50;;;;;;4961199;28;19926;-87
2022/07/17 00:12:45;;;;;;;;;;;20.30;70.70;;;;;;4946849;29;19926;-87
2022/07/17 00:15:15;;;;;;;;;;;20.00;70.80;;;;;;4944872;29;19942;-87
2022/07/17 00:17:42;;;;;;;;;;;20.20;71.10;;;;;;4949698;28;19930;-87
2022/07/17 00:20:11;;;;;;;;;;;20.10;71.90;;;;;;4961678;28;19949;-87
2022/07/17 00:22:39;;;;;;;;;;;20.00;71.90;;;;;;4962378;28;19930;-87
2022/07/17 00:25:10;;;;;;;;;;;20.00;71.80;;;;;;4964765;28;20457;-86
2022/07/17 00:27:39;;;;;;;;;;;19.90;72.50;;;;;;4955798;29;19933;-87
2022/07/17 00:30:07;;;;;;;;;;;19.90;72.90;;;;;;4941030;29;19942;-86
2022/07/17 00:32:40;;;;;;;;;;;20.80;73.40;;;;;;4954211;29;19942;-86
2022/07/17 00:35:09;;;;;;;;;;;19.70;73.10;;;;;;4933439;29;19938;-86
2022/07/17 00:37:41;;;;;;;;;;;19.70;73.60;;;;;;4946417;29;19934;-88
2022/07/17 00:40:12;;;;;;;;;;;19.60;73.60;;;;;;4945158;29;20302;-87
2022/07/17 00:42:41;;;;;;;;;;;19.60;73.90;;;;;;4928080;29;19927;-88
2022/07/17 00:45:10;;;;;;;;;;;19.50;73.90;;;;;;4961721;28;19926;-86
2022/07/17 00:47:50;;;;;;;;;;;19.40;75.00;;;;;;4945623;29;19927;-87
2022/07/17 00:50:19;;;;;;;;;;;19.30;74.80;;;;;;4961022;29;19931;-87
2022/07/17 00:52:48;;;;;;;;;;;19.30;74.90;;;;;;4945519;29;19931;-86
2022/07/17 00:55:16;;;;;;;;;;;19.20;75.20;;;;;;4946384;29;19930;-87
2022/07/17 00:58:07;;;;;;;;;;;19.10;75.90;;;;;;4940713;29;19934;-87
2022/07/17 01:00:35;;;;;;;;;;;18.80;77.20;;;;;;4953107;29;19926;-88
2022/07/17 01:03:05;;;;;;;;;;;18.80;76.60;;;;;;4965422;28;19950;-87
2022/07/17 01:05:33;;;;;;;;;;;18.70;77.30;;;;;;4957201;28;19934;-86
2022/07/17 01:08:05;;;;;;;;;;;18.60;78.20;;;;;;4955107;29;20298;-86
2022/07/17 01:10:34;;;;;;;;;;;18.60;78.00;;;;;;4961390;28;20113;-86
2022/07/17 01:13:04;;;;;;;;;;;18.50;78.90;;;;;;4961593;28;19931;-87
2022/07/17 01:15:35;;;;;;;;;;;18.40;77.90;;;;;;4942029;29;20390;-86
2022/07/17 01:18:05;;;;;;;;;;;18.50;78.40;;;;;;4945769;29;19938;-86
2022/07/17 01:20:36;;;;;;;;;;;18.40;78.50;;;;;;4915464;29;20391;-86
2022/07/17 01:23:04;;;;;;;;;;;18.40;78.70;;;;;;4952376;29;19930;-87
2022/07/17 01:25:35;;;;;;;;;;;18.30;79.10;;;;;;4946303;29;19941;-85
2022/07/17 01:28:03;;;;;;;;;;;18.30;78.90;;;;;;4960377;29;19922;-85
2022/07/17 01:30:33;;;;;;;;;;;18.30;78.90;;;;;;4962168;29;19933;-87
2022/07/17 01:33:04;;;;;;;;;;;18.90;79.10;;;;;;4949311;28;19926;-86
2022/07/17 01:35:31;;;;;;;;;;;18.20;79.40;;;;;;4936093;29;19926;-86
2022/07/17 01:38:03;;;;;;;;;;;18.20;80.50;;;;;;4955384;29;19938;-84
2022/07/17 01:40:31;;;;;;;;;;;18.10;79.60;;;;;;4954525;28;19930;-87
2022/07/17 01:43:01;;;;;;;;;;;18.10;80.10;;;;;;4960118;29;19926;-86
2022/07/17 01:45:34;;;;;;;;;;;18.10;80.50;;;;;;4960802;29;19930;-85
2022/07/17 01:48:06;;;;;;;;;;;18.10;80.20;;;;;;4961483;28;19938;-85
2022/07/17 01:50:34;;;;;;;;;;;18.00;80.60;;;;;;4948542;29;19931;-85
2022/07/17 01:53:02;;;;;;;;;;;17.90;80.50;;;;;;4962284;29;19953;-85
2022/07/17 01:55:33;;;;;;;;;;;17.80;80.90;;;;;;4962980;29;19931;-85
2022/07/17 01:58:01;;;;;;;;;;;17.70;80.70;;;;;;4954060;29;19926;-86
2022/07/17 02:00:36;;;;;;;;;;;17.80;81.70;;;;;;4963946;28;19927;-86
2022/07/17 02:03:05;;;;;;;;;;;17.70;81.90;;;;;;4949323;29;19931;-86
2022/07/17 02:05:36;;;;;;;;;;;17.40;83.40;;;;;;4962927;29;19938;-86
2022/07/17 02:08:05;;;;;;;;;;;17.50;82.30;;;;;;4960866;29;19934;-85
2022/07/17 02:10:32;;;;;;;;;;;17.50;82.80;;;;;;4945362;29;19933;-85
2022/07/17 02:13:00;;;;;;;;;;;17.50;82.90;;;;;;4940201;29;19930;-86
2022/07/17 02:15:29;;;;;;;;;;;17.40;83.20;;;;;;4944851;29;19937;-87
2022/07/17 02:17:58;;;;;;;;;;;17.40;84.10;;;;;;4965401;28;19934;-86
2022/07/17 02:20:25;;;;;;;;;;;17.30;83.00;;;;;;4965664;28;19926;-86
2022/07/17 02:22:53;;;;;;;;;;;17.30;83.30;;;;;;4979756;28;19926;-87
2022/07/17 02:25:21;;;;;;;;;;;17.40;83.40;;;;;;4978586;28;19927;-86
2022/07/17 02:27:49;;;;;;;;;;;17.30;83.60;;;;;;4966182;28;19926;-85
2022/07/17 02:30:18;;;;;;;;;;;17.30;83.90;;;;;;4955510;29;19927;-87
2022/07/17 02:32:46;;;;;;;;;;;17.30;83.80;;;;;;4966815;28;20723;-85
2022/07/17 02:35:14;;;;;;;;;;;17.30;84.20;;;;;;4971850;28;19930;-86
2022/07/17 02:37:43;;;;;;;;;;;17.70;84.40;;;;;;4974182;28;19934;-86
2022/07/17 02:40:11;;;;;;;;;;;17.30;85.20;;;;;;4945181;29;19931;-86
2022/07/17 02:42:40;;;;;;;;;;;17.20;84.40;;;;;;4958083;28;19930;-86
2022/07/17 02:45:09;;;;;;;;;;;17.10;84.70;;;;;;4958738;29;19927;-86
2022/07/17 02:47:36;;;;;;;;;;;17.10;85.50;;;;;;4961993;28;19926;-85
2022/07/17 02:50:05;;;;;;;;;;;17.00;85.40;;;;;;4965776;28;19933;-86
2022/07/17 02:52:33;;;;;;;;;;;16.90;87.30;;;;;;4957185;29;19934;-85
2022/07/17 02:55:02;;;;;;;;;;;16.90;86.20;;;;;;4947940;28;19937;-86
2022/07/17 02:57:29;;;;;;;;;;;16.90;86.60;;;;;;4964517;28;19929;-85
2022/07/17 02:59:57;;;;;;;;;;;16.80;87.40;;;;;;4952452;28;20029;-86
2022/07/17 03:02:25;;;;;;;;;;;16.90;85.80;;;;;;4962701;28;20309;-86
2022/07/17 03:04:55;;;;;;;;;;;16.90;86.30;;;;;;4964248;28;19933;-86
2022/07/17 03:07:23;;;;;;;;;;;16.80;86.40;;;;;;4604378;29;10000573;-87
2022/07/17 03:09:50;;;;;;;;;;;16.80;87.50;;;;;;4973523;28;19926;-87
2022/07/17 03:12:18;;;;;;;;;;;16.80;86.40;;;;;;4961637;29;19927;-85
2022/07/17 03:14:45;;;;;;;;;;;16.80;86.80;;;;;;4959568;28;19934;-86
2022/07/17 03:17:13;;;;;;;;;;;16.80;86.70;;;;;;4961773;28;19950;-87
2022/07/17 03:19:41;;;;;;;;;;;16.80;87.50;;;;;;4946401;29;19937;-84
2022/07/17 03:22:09;;;;;;;;;;;16.60;87.00;;;;;;4960092;28;20374;-86
2022/07/17 03:24:37;;;;;;;;;;;16.70;87.10;;;;;;4961903;28;20719;-85
2022/07/17 03:27:05;;;;;;;;;;;16.70;87.60;;;;;;4946833;29;19931;-85
2022/07/17 03:29:32;;;;;;;;;;;16.60;87.30;;;;;;4944565;29;20417;-87
2022/07/17 03:32:00;;;;;;;;;;;15.20;86.50;;;;;;4962026;29;19926;-85
2022/07/17 03:34:27;;;;;;;;;;;16.70;87.80;;;;;;4955750;28;19927;-85
2022/07/17 03:36:55;;;;;;;;;;;16.60;88.10;;;;;;4959830;29;20394;-86
2022/07/17 03:39:23;;;;;;;;;;;16.60;89.10;;;;;;4960993;28;19933;-86
2022/07/17 03:41:51;;;;;;;;;;;16.50;88.40;;;;;;4961719;28;19935;-84
2022/07/17 03:44:19;;;;;;;;;;;16.20;89.30;;;;;;4963666;28;19937;-85
2022/07/17 03:46:47;;;;;;;;;;;16.40;89.10;;;;;;4958828;29;19934;-85
2022/07/17 03:49:18;;;;;;;;;;;16.30;89.40;;;;;;4945463;29;20397;-86
2022/07/17 03:51:47;;;;;;;;;;;16.40;89.90;;;;;;4975401;28;19930;-85
2022/07/17 03:54:14;;;;;;;;;;;16.20;89.30;;;;;;4963639;28;19999;-85
2022/07/17 03:56:42;;;;;;;;;;;16.30;89.80;;;;;;4961130;28;19937;-85
2022/07/17 03:59:12;;;;;;;;;;;16.30;89.10;;;;;;4944378;29;19926;-85
2022/07/17 04:01:41;;;;;;;;;;;16.30;89.50;;;;;;4961436;28;20107;-85
2022/07/17 04:04:09;;;;;;;;;;;16.30;89.80;;;;;;4974522;28;19926;-85
2022/07/17 04:06:41;;;;;;;;;;;16.00;90.00;;;;;;4960392;29;19930;-85
2022/07/17 04:09:09;;;;;;;;;;;16.30;90.20;;;;;;4944187;29;19927;-84
2022/07/17 04:11:37;;;;;;;;;;;16.30;90.60;;;;;;4943755;29;19927;-85
2022/07/17 04:14:05;;;;;;;;;;;16.30;90.20;;;;;;4945926;29;20389;-85
2022/07/17 04:16:32;;;;;;;;;;;16.30;90.30;;;;;;4961211;28;19933;-85
2022/07/17 04:19:00;;;;;;;;;;;16.20;90.30;;;;;;4962999;28;19930;-85
2022/07/17 04:21:28;;;;;;;;;;;16.30;90.20;;;;;;4965150;28;19933;-86
2022/07/17 04:23:56;;;;;;;;;;;16.20;90.20;;;;;;4952043;28;19930;-85
2022/07/17 04:26:25;;;;;;;;;;;16.20;90.30;;;;;;4975460;28;19937;-86
2022/07/17 04:28:53;;;;;;;;;;;16.30;90.40;;;;;;4950623;28;19933;-86
2022/07/17 04:31:21;;;;;;;;;;;16.30;90.60;;;;;;4978908;28;19934;-85
2022/07/17 04:33:52;;;;;;;;;;;16.30;90.70;;;;;;4963656;28;19933;-87
2022/07/17 04:36:19;;;;;;;;;;;16.30;90.70;;;;;;4927314;29;19939;-86
2022/07/17 04:38:47;;;;;;;;;;;16.30;90.60;;;;;;4963131;28;19938;-85
2022/07/17 04:41:16;;;;;;;;;;;16.30;90.90;;;;;;4947794;29;19926;-85
2022/07/17 04:43:45;;;;;;;;;;;16.20;90.80;;;;;;4950049;29;20366;-85
2022/07/17 04:46:13;;;;;;;;;;;16.20;90.80;;;;;;4964791;28;19927;-85
2022/07/17 04:48:41;;;;;;;;;;;16.30;90.90;;;;;;4945507;29;19927;-85
2022/07/17 04:51:11;;;;;;;;;;;16.30;91.10;;;;;;4956703;29;19927;-86
2022/07/17 04:53:41;;;;;;;;;;;16.30;91.10;;;;;;4943443;29;19937;-85
2022/07/17 04:56:11;;;;;;;;;;;16.40;91.30;;;;;;4946857;29;19927;-84
2022/07/17 04:58:40;;;;;;;;;;;16.30;91.20;;;;;;4964619;28;19930;-86
2022/07/17 05:01:10;;;;;;;;;;;16.40;91.30;;;;;;4939655;29;20298;-86
2022/07/17 05:03:47;;;;;;;;;;;16.40;91.20;;;;;;4954802;29;20390;-86
2022/07/17 05:06:15;;;;;;;;;;;16.40;91.30;;;;;;4947182;29;20322;-85
2022/07/17 05:08:43;;;;;;;;;;;16.20;91.00;;;;;;4963811;28;19930;-86
2022/07/17 05:11:12;;;;;;;;;;;16.40;91.30;;;;;;4964811;28;19934;-85
2022/07/17 05:13:41;;;;;;;;;;;16.40;91.10;;;;;;4962546;28;20305;-86
2022/07/17 05:16:11;;;;;;;;;;;16.50;91.30;;;;;;4959090;28;19931;-86
2022/07/17 05:18:48;;;;;;;;;;;16.50;91.20;;;;;;4964705;28;19936;-86
2022/07/17 05:21:15;;;;;;;;;;;16.40;91.80;;;;;;4967784;28;19926;-86
2022/07/17 05:23:43;;;;;;;;;;;16.40;91.50;;;;;;4932546;29;20308;-86
2022/07/17 05:26:10;;;;;;;;;;;16.40;91.80;;;;;;4963765;28;19934;-86
2022/07/17 05:28:43;;;;;;;;;;;16.40;91.60;;;;;;4939426;29;19937;-86
2022/07/17 05:31:10;;;;;;;;;;;16.20;91.90;;;;;;4945706;28;19934;-86
2022/07/17 05:33:38;;;;;;;;;;;16.40;92.00;;;;;;4927390;29;19927;-86
2022/07/17 05:36:06;;;;;;;;;;;16.40;91.90;;;;;;4970543;28;19930;-86
2022/07/17 05:38:34;;;;;;;;;;;16.40;92.00;;;;;;4968821;28;19931;-86
2022/07/17 05:41:03;;;;;;;;;;;15.70;91.70;;;;;;4953618;28;19952;-87
2022/07/17 05:43:31;;;;;;;;;;;16.60;92.00;;;;;;4955365;28;19926;-86
2022/07/17 05:45:59;;;;;;;;;;;15.70;91.80;;;;;;4968688;28;19930;-87
2022/07/17 05:48:30;;;;;;;;;;;16.60;92.00;;;;;;4974445;28;19926;-86
2022/07/17 05:50:58;;;;;;;;;;;16.80;92.10;;;;;;4961304;28;19930;-86
2022/07/17 05:53:26;;;;;;;;;;;16.90;92.00;;;;;;4974891;28;19926;-87
2022/07/17 05:55:57;;;;;;;;;;;16.50;91.80;;;;;;4967279;28;19926;-86
2022/07/17 05:58:26;;;;;;;;;;;17.00;91.90;;;;;;4983282;28;19937;-87
2022/07/17 06:00:55;;;;;;;;;;;17.10;92.00;;;;;;4976003;28;19926;-86
2022/07/17 06:03:23;;;;;;;;;;;17.10;91.90;;;;;;4963991;29;19926;-87
2022/07/17 06:05:52;;;;;;;;;;;17.30;91.80;;;;;;4956128;28;19933;-86
2022/07/17 06:08:23;;;;;;;;;;;17.40;91.70;;;;;;4961168;29;19934;-86
2022/07/17 06:10:52;;;;;;;;;;;17.50;91.50;;;;;;4960120;29;19930;-87
2022/07/17 06:13:22;;;;;;;;;;;17.50;91.30;;;;;;4957569;28;20093;-87
2022/07/17 06:15:49;;;;;;;;;;;17.60;91.20;;;;;;4955231;28;19938;-88
2022/07/17 06:18:18;;;;;;;;;;;17.80;91.10;;;;;;4956811;29;19957;-86
2022/07/17 06:20:48;;;;;;;;;;;17.60;91.10;;;;;;4943985;29;19933;-86
2022/07/17 06:23:15;;;;;;;;;;;18.00;90.80;;;;;;4967581;28;19927;-86
2022/07/17 06:25:46;;;;;;;;;;;18.30;90.90;;;;;;4960230;28;19962;-87
2022/07/17 06:28:15;;;;;;;;;;;18.10;90.70;;;;;;4959806;28;20430;-86
2022/07/17 06:30:43;;;;;;;;;;;18.40;90.70;;;;;;4966176;28;19942;-87
2022/07/17 06:33:13;;;;;;;;;;;18.40;90.60;;;;;;4946166;29;19938;-86
2022/07/17 06:35:42;;;;;;;;;;;18.40;90.50;;;;;;4939572;29;20413;-86
2022/07/17 06:38:13;;;;;;;;;;;18.50;90.60;;;;;;4961095;28;19937;-86
2022/07/17 06:40:41;;;;;;;;;;;18.70;90.60;;;;;;4971700;28;19932;-86
2022/07/17 06:43:08;;;;;;;;;;;18.80;90.50;;;;;;4959277;28;19950;-86
2022/07/17 06:45:36;;;;;;;;;;;18.90;90.30;;;;;;4927028;28;19934;-87
2022/07/17 06:48:06;;;;;;;;;;;18.90;90.10;;;;;;4971692;28;19927;-87
2022/07/17 06:50:35;;;;;;;;;;;18.50;89.80;;;;;;4929802;29;19934;-87
2022/07/17 06:53:03;;;;;;;;;;;19.20;89.50;;;;;;4940380;29;19930;-87
2022/07/17 06:55:31;;;;;;;;;;;19.30;89.40;;;;;;4959039;28;19938;-86
2022/07/17 06:57:59;;;;;;;;;;;19.40;89.00;;;;;;4926310;29;20492;-87
2022/07/17 07:00:30;;;;;;;;;;;19.50;88.60;;;;;;4950876;28;19926;-86
2022/07/17 07:02:58;;;;;;;;;;;19.60;88.20;;;;;;4974116;28;19930;-86
2022/07/17 07:05:28;;;;;;;;;;;19.70;87.90;;;;;;4978075;28;19931;-87
2022/07/17 07:07:56;;;;;;;;;;;19.80;88.10;;;;;;4969796;28;19934;-86
2022/07/17 07:10:23;;;;;;;;;;;19.90;87.70;;;;;;4946158;29;19930;-87
2022/07/17 07:12:51;;;;;;;;;;;20.10;87.10;;;;;;4961568;28;19933;-86
2022/07/17 07:15:24;;;;;;;;;;;20.20;86.70;;;;;;4946015;29;19938;-86
2022/07/17 07:17:56;;;;;;;;;;;20.00;86.20;;;;;;4963600;28;19927;-86
2022/07/17 07:20:24;;;;;;;;;;;20.40;85.50;;;;;;4946077;29;19950;-85
2022/07/17 07:22:53;;;;;;;;;;;20.50;85.90;;;;;;4947035;29;19937;-86
2022/07/17 07:25:24;;;;;;;;;;;20.60;85.20;;;;;;4925830;29;19938;-87
2022/07/17 07:27:54;;;;;;;;;;;20.80;85.20;;;;;;4929722;29;19951;-87
2022/07/17 07:30:24;;;;;;;;;;;20.90;84.20;;;;;;4952867;29;20010;-87
2022/07/17 07:32:59;;;;;;;;;;;20.90;83.60;;;;;;4942301;29;19934;-88
2022/07/17 07:35:26;;;;;;;;;;;21.10;83.80;;;;;;4926894;29;19927;-87
2022/07/17 07:37:55;;;;;;;;;;;21.30;82.70;;;;;;4933994;29;19931;-87
2022/07/17 07:40:26;;;;;;;;;;;21.30;81.20;;;;;;4954314;29;19947;-86
2022/07/17 07:42:57;;;;;;;;;;;21.40;81.50;;;;;;4948245;29;20369;-85
2022/07/17 07:45:28;;;;;;;;;;;21.50;81.70;;;;;;4929738;29;19926;-86
2022/07/17 07:47:57;;;;;;;;;;;21.60;80.90;;;;;;4929042;29;19937;-84
2022/07/17 07:50:26;;;;;;;;;;;21.70;80.20;;;;;;4927238;29;19942;-87
2022/07/17 07:52:54;;;;;;;;;;;21.80;80.00;;;;;;4940235;29;20144;-86
2022/07/17 07:55:25;;;;;;;;;;;21.90;79.40;;;;;;4938937;29;19931;-86
2022/07/17 07:58:07;;;;;;;;;;;22.00;79.30;;;;;;4940099;29;19934;-85
2022/07/17 08:00:36;;;;;;;;;;;22.20;79.30;;;;;;4942069;29;19926;-85
2022/07/17 08:03:05;;;;;;;;;;;22.30;77.80;;;;;;4918334;29;19935;-85
2022/07/17 08:05:33;;;;;;;;;;;22.40;77.10;;;;;;4905640;29;19931;-86
2022/07/17 08:08:04;;;;;;;;;;;22.60;76.10;;;;;;4905821;29;19935;-87
2022/07/17 08:10:34;;;;;;;;;;;22.70;75.30;;;;;;4917826;29;19931;-87
2022/07/17 08:13:02;;;;;;;;;;;22.80;75.90;;;;;;4934397;29;19935;-87
2022/07/17 08:15:30;;;;;;;;;;;22.90;75.50;;;;;;4921841;29;19938;-85
2022/07/17 08:17:59;;;;;;;;;;;23.70;75.80;;;;;;4917697;29;19934;-87
2022/07/17 08:20:29;;;;;;;;;;;23.10;75.70;;;;;;4907676;29;19931;-86
2022/07/17 08:22:58;;;;;;;;;;;23.10;75.00;;;;;;4939836;29;20284;-87
2022/07/17 08:25:43;;;;;;;;;;;23.20;75.00;;;;;;4939918;28;19934;-87
2022/07/17 08:28:17;;;;;;;;;;;23.30;74.00;;;;;;4943959;29;20390;-86
2022/07/17 08:30:46;;;;;;;;;;;23.40;74.70;;;;;;4939523;28;19934;-87
2022/07/17 08:33:15;;;;;;;;;;;23.50;74.50;;;;;;4957668;28;19935;-87
2022/07/17 08:35:43;;;;;;;;;;;23.60;73.20;;;;;;4937192;28;19931;-88
2022/07/17 08:38:13;;;;;;;;;;;23.60;73.00;;;;;;4613985;28;10000570;-88
2022/07/17 08:40:43;;;;;;;;;;;23.80;72.90;;;;;;4944990;29;19926;-87
2022/07/17 08:43:11;;;;;;;;;;;23.90;74.50;;;;;;4957835;28;19931;-87
2022/07/17 08:45:44;;;;;;;;;;;24.00;72.90;;;;;;4955412;28;19938;-87
2022/07/17 08:48:15;;;;;;;;;;;24.20;73.50;;;;;;4956818;28;19941;-87
2022/07/17 08:50:45;;;;;;;;;;;24.30;72.40;;;;;;4965548;28;19949;-85
2022/07/17 08:53:14;;;;;;;;;;;24.40;71.80;;;;;;4949780;28;19938;-86
2022/07/17 08:55:41;;;;;;;;;;;24.50;71.20;;;;;;4958295;28;19938;-83
2022/07/17 08:58:14;;;;;;;;;;;24.60;71.20;;;;;;4937712;28;19930;-86
2022/07/17 09:00:42;;;;;;;;;;;24.60;70.40;;;;;;4960780;28;19927;-86
2022/07/17 09:03:10;;;;;;;;;;;24.70;70.80;;;;;;4930368;28;19931;-87
2022/07/17 09:05:40;;;;;;;;;;;24.80;71.10;;;;;;4958656;28;19937;-85
2022/07/17 09:08:21;;;;;;;;;;;24.80;71.30;;;;;;4948771;28;19934;-86
2022/07/17 09:10:51;;;;;;;;;;;24.90;70.20;;;;;;4960169;28;19926;-85
2022/07/17 09:13:22;;;;;;;;;;;25.00;70.10;;;;;;4959145;28;19945;-86
2022/07/17 09:15:54;;;;;;;;;;;25.10;70.00;;;;;;4959879;28;19929;-86
2022/07/17 09:18:23;;;;;;;;;;;24.30;69.10;;;;;;4961178;28;19930;-85
2022/07/17 09:20:57;;;;;;;;;;;25.30;69.10;;;;;;4959864;28;19934;-86
2022/07/17 09:23:27;;;;;;;;;;;25.40;69.60;;;;;;4961417;28;20374;-84
2022/07/17 09:25:56;;;;;;;;;;;25.40;69.60;;;;;;4936778;28;19934;-85
2022/07/17 09:28:26;;;;;;;;;;;25.50;69.40;;;;;;4959263;28;19933;-87
2022/07/17 09:30:55;;;;;;;;;;;25.60;68.40;;;;;;4958803;28;19934;-86
2022/07/17 09:33:27;;;;;;;;;;;25.60;68.00;;;;;;4960231;28;19930;-85
2022/07/17 09:35:57;;;;;;;;;;;25.60;68.10;;;;;;4958257;28;20516;-84
2022/07/17 09:38:39;;;;;;;;;;;25.60;68.30;;;;;;4944941;28;19945;-87
2022/07/17 09:41:15;;;;;;;;;;;25.70;68.50;;;;;;4944159;28;19934;-86
2022/07/17 09:43:57;;;;;;;;;;;25.80;68.00;;;;;;4967910;28;20035;-86
2022/07/17 09:46:32;;;;;;;;;;;25.90;67.90;;;;;;4944006;28;19935;-85
2022/07/17 09:49:03;;;;;;;;;;;26.10;68.60;;;;;;4960970;28;20282;-85
2022/07/17 09:51:32;;;;;;;;;;;26.10;67.40;;;;;;4934918;28;20178;-86
2022/07/17 09:54:01;;;;;;;;;;;26.20;67.90;;;;;;4940695;28;19937;-86
2022/07/17 09:56:30;;;;;;;;;;;26.40;67.60;;;;;;4957708;28;20275;-87
2022/07/17 09:58:58;;;;;;;;;;;26.50;67.50;;;;;;4956288;28;19934;-86
2022/07/17 10:01:26;;;;;;;;;;;26.50;67.00;;;;;;4954410;28;19934;-87
2022/07/17 10:03:54;;;;;;;;;;;26.70;67.50;;;;;;4943377;28;20349;-89
2022/07/17 10:06:24;;;;;;;;;;;26.80;66.40;;;;;;4941770;28;19927;-89
2022/07/17 10:08:54;;;;;;;;;;;26.70;66.10;;;;;;4960871;28;19927;-90
2022/07/17 10:11:24;;;;;;;;;;;27.00;65.70;;;;;;4947317;28;19937;-89
2022/07/17 10:14:03;;;;;;;;;;;27.20;66.50;;;;;;4963054;28;19931;-89
2022/07/17 10:16:35;;;;;;;;;;;27.30;65.60;;;;;;4941939;28;19930;-89
2022/07/17 10:19:17;;;;;;;;;;;27.40;64.90;;;;;;4947615;28;19932;-88
2022/07/17 10:21:53;;;;;;;;;;;27.40;64.20;;;;;;4946181;28;20309;-88
2022/07/17 10:24:29;;;;;;;;;;;27.40;65.00;;;;;;4962065;28;20294;-88
2022/07/17 10:26:58;;;;;;;;;;;27.50;64.60;;;;;;4954238;28;20004;-89
2022/07/17 10:29:30;;;;;;;;;;;27.50;64.60;;;;;;4954330;28;19938;-89
2022/07/17 10:31:59;;;;;;;;;;;27.60;65.20;;;;;;4951880;28;19946;-89
2022/07/17 10:34:45;;;;;;;;;;;27.80;65.00;;;;;;4965231;28;19930;-90
2022/07/17 10:37:23;;;;;;;;;;;27.90;63.50;;;;;;4947056;28;19949;-89
2022/07/17 10:39:53;;;;;;;;;;;28.00;63.00;;;;;;4967866;28;19931;-88
2022/07/17 10:42:43;;;;;;;;;;;28.20;63.40;;;;;;4971442;28;19926;-89
2022/07/17 10:45:12;;;;;;;;;;;28.30;62.30;;;;;;4967892;28;19926;-88
2022/07/17 10:47:49;;;;;;;;;;;28.40;62.20;;;;;;4948260;28;19933;-88
2022/07/17 10:50:29;;;;;;;;;;;28.40;62.40;;;;;;4944496;29;19937;-90
2022/07/17 10:52:59;;;;;;;;;;;28.40;61.20;;;;;;4946191;28;19937;-90
2022/07/17 10:55:28;;;;;;;;;;;28.20;61.50;;;;;;4949906;29;19949;-91
2022/07/17 10:57:56;;;;;;;;;;;28.40;62.10;;;;;;4950533;28;19937;-90
2022/07/17 11:00:26;;;;;;;;;;;28.40;62.00;;;;;;4952679;28;20043;-90
2022/07/17 11:02:54;;;;;;;;;;;28.60;61.80;;;;;;4935623;29;19937;-90
2022/07/17 11:05:24;;;;;;;;;;;28.80;61.50;;;;;;4939890;29;19930;-90
2022/07/17 11:07:58;;;;;;;;;;;28.90;59.60;;;;;;4948202;29;19957;-90
2022/07/17 11:10:28;;;;;;;;;;;28.90;60.60;;;;;;4935981;28;19934;-91
2022/07/17 11:13:29;;;;;;;;;;;28.90;59.60;;;;;;4949749;29;19930;-92
2022/07/17 11:16:03;;;;;;;;;;;29.00;59.80;;;;;;4970330;28;19926;-91
2022/07/17 11:18:45;;;;;;;;;;;29.20;59.10;;;;;;4952587;29;19930;-91
2022/07/17 11:21:19;;;;;;;;;;;29.30;60.00;;;;;;4942259;28;19936;-91
2022/07/17 11:23:53;;;;;;;;;;;29.50;59.40;;;;;;4960759;29;19937;-91
2022/07/17 11:26:25;;;;;;;;;;;29.50;59.30;;;;;;4963028;28;19931;-90
2022/07/17 11:28:55;;;;;;;;;;;29.80;60.30;;;;;;4935337;28;19931;-93
2022/07/17 11:31:29;;;;;;;;;;;29.70;60.40;;;;;;4948483;29;19934;-90
2022/07/17 11:34:01;;;;;;;;;;;29.80;60.10;;;;;;4977152;28;19926;-91
2022/07/17 11:36:44;;;;;;;;;;;29.90;60.20;;;;;;4954457;28;20013;-89
2022/07/17 11:39:18;;;;;;;;;;;30.00;59.80;;;;;;4952063;28;19938;-90
2022/07/17 11:42:17;;;;;;;;;;;30.10;59.50;;;;;;4958375;28;19933;-91
2022/07/17 11:45:04;;;;;;;;;;;30.20;60.10;;;;;;4957466;28;20393;-92
2022/07/17 11:47:48;;;;;;;;;;;30.20;60.50;;;;;;4958379;28;20325;-91
2022/07/17 11:50:22;;;;;;;;;;;30.50;59.80;;;;;;4963309;28;19920;-91
2022/07/17 11:55:57;;;;;;;;;;;30.70;58.40;;;;;;4981454;28;20282;-85
2022/07/17 11:58:25;;;;;;;;;;;30.80;59.10;;;;;;4988551;28;20379;-84
2022/07/17 12:01:03;;;;;;;;;;;30.90;59.40;;;;;;5020064;28;19925;-84
2022/07/17 12:03:33;;;;;;;;;;;30.90;58.10;;;;;;5028311;28;19928;-85
2022/07/17 12:06:01;;;;;;;;;;;30.60;59.20;;;;;;5031882;28;19930;-84
2022/07/17 12:08:33;;;;;;;;;;;32.20;61.10;;;;;;5013577;28;19933;-85
2022/07/17 12:11:06;;;;;;;;;;;30.60;59.00;;;;;;4997371;28;19925;-85
2022/07/17 12:13:40;;;;;;;;;;;29.20;58.10;;;;;;4989328;28;19936;-85
2022/07/17 12:16:23;;;;;;;;;;;30.80;58.80;;;;;;4985346;28;19933;-85
2022/07/17 12:19:04;;;;;;;;;;;30.70;58.80;;;;;;4991196;28;19935;-85
2022/07/17 12:21:50;;;;;;;;;;;31.00;58.90;;;;;;4991893;28;19936;-85
2022/07/17 12:24:30;;;;;;;;;;;31.40;58.20;;;;;;5017374;28;19925;-85
2022/07/17 12:27:02;;;;;;;;;;;31.30;57.70;;;;;;5003740;28;19957;-85
2022/07/17 12:29:43;;;;;;;;;;;31.50;58.40;;;;;;5011721;28;19925;-86
2022/07/17 12:32:18;;;;;;;;;;;31.50;56.50;;;;;;4995354;28;19930;-85
2022/07/17 12:34:48;;;;;;;;;;;30.20;56.50;;;;;;4996066;28;19934;-85
2022/07/17 12:37:19;;;;;;;;;;;31.60;58.20;;;;;;5008514;28;19925;-85
2022/07/17 12:39:55;;;;;;;;;;;31.70;57.30;;;;;;5028064;28;19931;-84
2022/07/17 12:42:23;;;;;;;;;;;31.70;56.80;;;;;;4992488;28;19936;-84
2022/07/17 12:44:52;;;;;;;;;;;30.50;57.00;;;;;;5028527;28;19937;-85
2022/07/17 12:47:21;;;;;;;;;;;32.00;56.40;;;;;;5019222;28;19930;-84
2022/07/17 12:49:50;;;;;;;;;;;32.10;55.90;;;;;;5017478;28;19926;-84
2022/07/17 12:52:24;;;;;;;;;;;32.20;57.20;;;;;;5010917;28;20172;-84
2022/07/17 12:54:58;;;;;;;;;;;32.30;55.30;;;;;;5002790;28;19932;-84
2022/07/17 12:57:26;;;;;;;;;;;32.20;56.80;;;;;;4993462;28;19933;-79
2022/07/17 12:59:55;;;;;;;;;;;32.20;55.20;;;;;;4985986;28;19925;-80
2022/07/17 13:02:23;;;;;;;;;;;32.20;55.10;;;;;;5004921;28;19926;-81
2022/07/17 13:04:53;;;;;;;;;;;32.30;54.80;;;;;;4985352;28;19930;-81
2022/07/17 13:07:29;;;;;;;;;;;32.50;55.30;;;;;;5005333;28;19930;-80
2022/07/17 13:09:57;;;;;;;;;;;32.60;54.90;;;;;;5025218;28;19933;-81
2022/07/17 13:12:25;;;;;;;;;;;32.80;54.70;;;;;;4990423;28;20457;-80
2022/07/17 13:14:53;;;;;;;;;;;32.80;54.40;;;;;;5014932;28;19943;-80
2022/07/17 13:17:21;;;;;;;;;;;32.70;54.90;;;;;;5015199;28;19929;-81
2022/07/17 13:19:50;;;;;;;;;;;32.30;55.10;;;;;;5023836;28;19932;-81
2022/07/17 13:22:18;;;;;;;;;;;32.90;55.00;;;;;;5017229;28;19933;-81
2022/07/17 13:24:46;;;;;;;;;;;33.10;55.00;;;;;;5003181;28;19933;-84
2022/07/17 13:27:14;;;;;;;;;;;33.30;55.00;;;;;;5003433;28;19943;-80
2022/07/17 13:29:43;;;;;;;;;;;33.60;54.60;;;;;;5019625;28;19929;-80
2022/07/17 13:32:11;;;;;;;;;;;33.80;54.10;;;;;;5019153;28;19939;-80
2022/07/17 13:34:39;;;;;;;;;;;33.90;53.80;;;;;;5002566;28;19932;-80
2022/07/17 13:37:08;;;;;;;;;;;33.80;54.30;;;;;;5021119;28;19929;-79
2022/07/17 13:39:36;;;;;;;;;;;33.70;53.90;;;;;;5009582;28;19940;-80
2022/07/17 13:42:04;;;;;;;;;;;33.60;53.90;;;;;;5024865;28;19934;-80
2022/07/17 13:44:33;;;;;;;;;;;33.60;54.10;;;;;;5023308;28;19925;-81
2022/07/17 13:47:04;;;;;;;;;;;33.60;53.80;;;;;;5003689;28;19926;-80
2022/07/17 13:49:33;;;;;;;;;;;33.60;53.60;;;;;;5017841;28;19944;-80
2022/07/17 13:52:01;;;;;;;;;;;33.70;54.00;;;;;;5019214;28;19945;-80
2022/07/17 13:54:29;;;;;;;;;;;33.80;53.40;;;;;;5004776;28;19937;-80
2022/07/17 13:56:59;;;;;;;;;;;33.80;53.40;;;;;;5030056;28;20306;-80
2022/07/17 13:59:27;;;;;;;;;;;33.80;53.50;;;;;;5009109;28;20686;-81
2022/07/17 14:01:57;;;;;;;;;;;33.80;52.30;;;;;;4997939;28;19925;-81
2022/07/17 14:04:26;;;;;;;;;;;33.90;52.60;;;;;;5028316;28;19931;-80
2022/07/17 14:06:55;;;;;;;;;;;34.00;52.80;;;;;;5031314;28;20658;-80
2022/07/17 14:09:23;;;;;;;;;;;33.90;52.80;;;;;;5008504;28;19933;-80
2022/07/17 14:11:53;;;;;;;;;;;34.00;52.20;;;;;;5023741;28;19925;-80
2022/07/17 14:14:20;;;;;;;;;;;34.20;52.30;;;;;;5025732;28;19925;-79
2022/07/17 14:16:49;;;;;;;;;;;34.50;52.90;;;;;;5031917;28;19939;-80
2022/07/17 14:19:17;;;;;;;;;;;34.80;52.40;;;;;;5021121;28;19950;-81
2022/07/17 14:21:45;;;;;;;;;;;35.00;51.70;;;;;;5028096;28;19936;-81
2022/07/17 14:24:13;;;;;;;;;;;35.20;52.30;;;;;;5038298;28;19940;-82
2022/07/17 14:26:45;;;;;;;;;;;35.20;51.50;;;;;;5036202;28;19936;-84
2022/07/17 14:29:13;;;;;;;;;;;35.30;51.20;;;;;;5007086;28;19929;-80
2022/07/17 14:31:41;;;;;;;;;;;35.40;50.70;;;;;;5025793;28;19933;-79
2022/07/17 14:34:12;;;;;;;;;;;35.40;51.10;;;;;;5011004;28;19930;-79
2022/07/17 14:36:40;;;;;;;;;;;35.50;50.80;;;;;;5037446;28;19932;-80